sensor_id;sensor_type;location;lat;lon;timestamp;P1;durP1;ratioP1;P2;durP2;ratioP2
83707;SDS011;73692;49.562;11.144;2024-01-07T00:01:56;10.88;;;6.43;;
83707;SDS011;73692;49.562;11.144;2024-01-07T00:04:21;10.40;;;6.20;;
83707;SDS011;73692;49.562;11.144;2024-01-07T00:06:46;12.35;;;6.70;;
83707;SDS011;73692;49.562;11.144;2024-01-07T00:09:12;14.15;;;6.75;;
83707;SDS011;73692;49.562;11.144;2024-01-07T00:11:38;15.55;;;7.15;;
83707;SDS011;73692;49.562;11.144;2024-01-07T00:16:29;10.98;;;6.45;;
83707;SDS011;73692;49.562;11.144;2024-01-07T00:18:54;11.52;;;6.43;;
83707;SDS011;73692;49.562;11.144;2024-01-07T00:21:19;12.45;;;7.13;;
83707;SDS011;73692;49.562;11.144;2024-01-07T00:23:45;13.00;;;6.90;;
83707;SDS011;73692;49.562;11.144;2024-01-07T00:26:10;13.98;;;7.38;;
83707;SDS011;73692;49.562;11.144;2024-01-07T00:28:35;12.80;;;6.85;;
83707;SDS011;73692;49.562;11.144;2024-01-07T00:31:01;12.80;;;6.88;;
83707;SDS011;73692;49.562;11.144;2024-01-07T00:33:26;14.52;;;8.32;;
83707;SDS011;73692;49.562;11.144;2024-01-07T00:35:51;16.02;;;8.10;;
83707;SDS011;73692;49.562;11.144;2024-01-07T00:38:17;13.50;;;7.03;;
83707;SDS011;73692;49.562;11.144;2024-01-07T00:40:42;14.10;;;8.27;;
83707;SDS011;73692;49.562;11.144;2024-01-07T00:45:33;14.87;;;8.50;;
83707;SDS011;73692;49.562;11.144;2024-01-07T00:47:59;15.10;;;7.57;;
83707;SDS011;73692;49.562;11.144;2024-01-07T00:50:24;14.50;;;7.55;;
83707;SDS011;73692;49.562;11.144;2024-01-07T00:52:49;14.73;;;8.07;;
83707;SDS011;73692;49.562;11.144;2024-01-07T00:55:15;15.90;;;7.78;;
83707;SDS011;73692;49.562;11.144;2024-01-07T00:57:40;12.60;;;7.18;;
83707;SDS011;73692;49.562;11.144;2024-01-07T01:00:06;11.77;;;7.07;;
83707;SDS011;73692;49.562;11.144;2024-01-07T01:02:32;15.40;;;7.03;;
83707;SDS011;73692;49.562;11.144;2024-01-07T01:04:58;13.18;;;7.65;;
83707;SDS011;73692;49.562;11.144;2024-01-07T01:07:23;13.70;;;7.37;;
83707;SDS011;73692;49.562;11.144;2024-01-07T01:09:49;12.55;;;7.00;;
83707;SDS011;73692;49.562;11.144;2024-01-07T01:12:14;13.18;;;6.93;;
83707;SDS011;73692;49.562;11.144;2024-01-07T01:14:40;12.93;;;6.53;;
83707;SDS011;73692;49.562;11.144;2024-01-07T01:17:05;10.13;;;6.22;;
83707;SDS011;73692;49.562;11.144;2024-01-07T01:19:31;12.80;;;6.82;;
83707;SDS011;73692;49.562;11.144;2024-01-07T01:21:56;11.52;;;6.20;;
83707;SDS011;73692;49.562;11.144;2024-01-07T01:24:21;14.03;;;6.93;;
83707;SDS011;73692;49.562;11.144;2024-01-07T01:26:47;9.60;;;5.77;;
83707;SDS011;73692;49.562;11.144;2024-01-07T01:29:12;11.18;;;6.45;;
83707;SDS011;73692;49.562;11.144;2024-01-07T01:31:37;9.97;;;5.60;;
83707;SDS011;73692;49.562;11.144;2024-01-07T01:34:03;10.57;;;6.15;;
83707;SDS011;73692;49.562;11.144;2024-01-07T01:36:29;10.43;;;5.75;;
83707;SDS011;73692;49.562;11.144;2024-01-07T01:38:55;11.10;;;6.10;;
83707;SDS011;73692;49.562;11.144;2024-01-07T01:41:21;12.13;;;6.60;;
83707;SDS011;73692;49.562;11.144;2024-01-07T01:43:46;11.88;;;6.07;;
83707;SDS011;73692;49.562;11.144;2024-01-07T01:46:11;13.38;;;7.22;;
83707;SDS011;73692;49.562;11.144;2024-01-07T01:48:38;13.07;;;6.40;;
83707;SDS011;73692;49.562;11.144;2024-01-07T01:51:05;11.93;;;6.05;;
83707;SDS011;73692;49.562;11.144;2024-01-07T01:53:30;9.18;;;5.95;;
83707;SDS011;73692;49.562;11.144;2024-01-07T01:55:57;9.40;;;5.38;;
83707;SDS011;73692;49.562;11.144;2024-01-07T01:58:22;11.55;;;6.13;;
83707;SDS011;73692;49.562;11.144;2024-01-07T02:00:48;11.77;;;5.43;;
83707;SDS011;73692;49.562;11.144;2024-01-07T02:03:15;8.85;;;5.60;;
83707;SDS011;73692;49.562;11.144;2024-01-07T02:05:41;10.57;;;5.35;;
83707;SDS011;73692;49.562;11.144;2024-01-07T02:08:06;11.25;;;5.97;;
83707;SDS011;73692;49.562;11.144;2024-01-07T02:10:32;11.68;;;5.70;;
83707;SDS011;73692;49.562;11.144;2024-01-07T02:13:01;11.57;;;5.28;;
83707;SDS011;73692;49.562;11.144;2024-01-07T02:15:27;9.95;;;5.00;;
83707;SDS011;73692;49.562;11.144;2024-01-07T02:17:52;10.77;;;5.70;;
83707;SDS011;73692;49.562;11.144;2024-01-07T02:20:17;9.07;;;5.22;;
83707;SDS011;73692;49.562;11.144;2024-01-07T02:22:43;10.18;;;4.97;;
83707;SDS011;73692;49.562;11.144;2024-01-07T02:25:08;10.55;;;5.50;;
83707;SDS011;73692;49.562;11.144;2024-01-07T02:27:34;6.13;;;3.85;;
83707;SDS011;73692;49.562;11.144;2024-01-07T02:29:59;9.70;;;5.03;;
83707;SDS011;73692;49.562;11.144;2024-01-07T02:32:24;7.00;;;4.43;;
83707;SDS011;73692;49.562;11.144;2024-01-07T02:34:50;8.15;;;4.82;;
83707;SDS011;73692;49.562;11.144;2024-01-07T02:37:15;7.50;;;4.20;;
83707;SDS011;73692;49.562;11.144;2024-01-07T02:39:41;7.72;;;3.83;;
83707;SDS011;73692;49.562;11.144;2024-01-07T02:42:07;9.27;;;3.83;;
83707;SDS011;73692;49.562;11.144;2024-01-07T02:44:32;8.32;;;5.30;;
83707;SDS011;73692;49.562;11.144;2024-01-07T02:46:57;9.03;;;4.47;;
83707;SDS011;73692;49.562;11.144;2024-01-07T02:49:23;9.77;;;5.03;;
83707;SDS011;73692;49.562;11.144;2024-01-07T02:51:48;8.67;;;4.67;;
83707;SDS011;73692;49.562;11.144;2024-01-07T02:54:14;9.07;;;4.65;;
83707;SDS011;73692;49.562;11.144;2024-01-07T02:56:40;9.27;;;4.45;;
83707;SDS011;73692;49.562;11.144;2024-01-07T02:59:05;8.17;;;4.97;;
83707;SDS011;73692;49.562;11.144;2024-01-07T03:01:30;8.63;;;4.20;;
83707;SDS011;73692;49.562;11.144;2024-01-07T03:03:56;10.52;;;4.68;;
83707;SDS011;73692;49.562;11.144;2024-01-07T03:06:21;8.73;;;4.10;;
83707;SDS011;73692;49.562;11.144;2024-01-07T03:08:47;9.73;;;4.55;;
83707;SDS011;73692;49.562;11.144;2024-01-07T03:11:14;7.65;;;4.35;;
83707;SDS011;73692;49.562;11.144;2024-01-07T03:13:39;8.15;;;4.47;;
83707;SDS011;73692;49.562;11.144;2024-01-07T03:16:05;9.32;;;4.88;;
83707;SDS011;73692;49.562;11.144;2024-01-07T03:18:31;10.80;;;5.22;;
83707;SDS011;73692;49.562;11.144;2024-01-07T03:20:56;8.98;;;4.90;;
83707;SDS011;73692;49.562;11.144;2024-01-07T03:23:21;11.13;;;5.37;;
83707;SDS011;73692;49.562;11.144;2024-01-07T03:25:47;8.93;;;4.97;;
83707;SDS011;73692;49.562;11.144;2024-01-07T03:28:12;9.50;;;5.18;;
83707;SDS011;73692;49.562;11.144;2024-01-07T03:30:37;10.25;;;4.82;;
83707;SDS011;73692;49.562;11.144;2024-01-07T03:33:03;10.73;;;4.93;;
83707;SDS011;73692;49.562;11.144;2024-01-07T03:35:28;10.57;;;5.57;;
83707;SDS011;73692;49.562;11.144;2024-01-07T03:37:53;10.52;;;5.45;;
83707;SDS011;73692;49.562;11.144;2024-01-07T03:40:19;12.57;;;5.68;;
83707;SDS011;73692;49.562;11.144;2024-01-07T03:42:44;10.50;;;5.28;;
83707;SDS011;73692;49.562;11.144;2024-01-07T03:45:09;9.87;;;4.80;;
83707;SDS011;73692;49.562;11.144;2024-01-07T03:47:35;11.68;;;5.28;;
83707;SDS011;73692;49.562;11.144;2024-01-07T03:50:00;10.93;;;4.63;;
83707;SDS011;73692;49.562;11.144;2024-01-07T03:52:25;9.53;;;5.23;;
83707;SDS011;73692;49.562;11.144;2024-01-07T03:54:50;10.88;;;4.72;;
83707;SDS011;73692;49.562;11.144;2024-01-07T03:57:16;8.38;;;4.72;;
83707;SDS011;73692;49.562;11.144;2024-01-07T03:59:41;9.93;;;4.55;;
83707;SDS011;73692;49.562;11.144;2024-01-07T04:02:06;8.48;;;4.18;;
83707;SDS011;73692;49.562;11.144;2024-01-07T04:04:32;8.63;;;4.90;;
83707;SDS011;73692;49.562;11.144;2024-01-07T04:06:57;9.05;;;4.55;;
83707;SDS011;73692;49.562;11.144;2024-01-07T04:09:23;10.40;;;5.70;;
83707;SDS011;73692;49.562;11.144;2024-01-07T04:11:48;10.17;;;4.90;;
83707;SDS011;73692;49.562;11.144;2024-01-07T04:14:14;8.70;;;4.40;;
83707;SDS011;73692;49.562;11.144;2024-01-07T04:16:40;10.05;;;4.72;;
83707;SDS011;73692;49.562;11.144;2024-01-07T04:19:05;10.75;;;5.38;;
83707;SDS011;73692;49.562;11.144;2024-01-07T04:21:31;9.50;;;4.55;;
83707;SDS011;73692;49.562;11.144;2024-01-07T04:23:56;9.82;;;4.75;;
83707;SDS011;73692;49.562;11.144;2024-01-07T04:26:21;9.63;;;4.32;;
83707;SDS011;73692;49.562;11.144;2024-01-07T04:28:47;9.73;;;4.50;;
83707;SDS011;73692;49.562;11.144;2024-01-07T04:31:12;9.13;;;4.33;;
83707;SDS011;73692;49.562;11.144;2024-01-07T04:33:37;7.40;;;3.95;;
83707;SDS011;73692;49.562;11.144;2024-01-07T04:36:02;8.05;;;4.72;;
83707;SDS011;73692;49.562;11.144;2024-01-07T04:38:29;9.57;;;4.97;;
83707;SDS011;73692;49.562;11.144;2024-01-07T04:40:54;8.45;;;3.88;;
83707;SDS011;73692;49.562;11.144;2024-01-07T04:43:20;7.85;;;4.10;;
83707;SDS011;73692;49.562;11.144;2024-01-07T04:45:45;7.50;;;2.92;;
83707;SDS011;73692;49.562;11.144;2024-01-07T04:48:11;6.78;;;3.63;;
83707;SDS011;73692;49.562;11.144;2024-01-07T04:50:36;8.70;;;3.88;;
83707;SDS011;73692;49.562;11.144;2024-01-07T04:53:01;7.13;;;3.75;;
83707;SDS011;73692;49.562;11.144;2024-01-07T04:55:27;6.30;;;3.42;;
83707;SDS011;73692;49.562;11.144;2024-01-07T04:57:53;7.65;;;3.65;;
83707;SDS011;73692;49.562;11.144;2024-01-07T05:00:18;8.10;;;3.35;;
83707;SDS011;73692;49.562;11.144;2024-01-07T05:02:43;7.13;;;3.60;;
83707;SDS011;73692;49.562;11.144;2024-01-07T05:05:09;8.68;;;3.67;;
83707;SDS011;73692;49.562;11.144;2024-01-07T05:07:34;7.95;;;3.92;;
83707;SDS011;73692;49.562;11.144;2024-01-07T05:09:59;7.57;;;4.07;;
83707;SDS011;73692;49.562;11.144;2024-01-07T05:12:25;6.00;;;3.30;;
83707;SDS011;73692;49.562;11.144;2024-01-07T05:14:51;8.20;;;4.22;;
83707;SDS011;73692;49.562;11.144;2024-01-07T05:17:16;7.85;;;3.28;;
83707;SDS011;73692;49.562;11.144;2024-01-07T05:19:42;8.05;;;3.92;;
83707;SDS011;73692;49.562;11.144;2024-01-07T05:22:07;8.70;;;4.18;;
83707;SDS011;73692;49.562;11.144;2024-01-07T05:24:32;6.67;;;3.40;;
83707;SDS011;73692;49.562;11.144;2024-01-07T05:26:58;7.28;;;3.30;;
83707;SDS011;73692;49.562;11.144;2024-01-07T05:29:23;8.18;;;4.40;;
83707;SDS011;73692;49.562;11.144;2024-01-07T05:31:48;8.45;;;3.50;;
83707;SDS011;73692;49.562;11.144;2024-01-07T05:34:14;7.60;;;4.03;;
83707;SDS011;73692;49.562;11.144;2024-01-07T05:36:39;6.38;;;3.55;;
83707;SDS011;73692;49.562;11.144;2024-01-07T05:39:04;7.10;;;3.67;;
83707;SDS011;73692;49.562;11.144;2024-01-07T05:41:31;9.43;;;3.67;;
83707;SDS011;73692;49.562;11.144;2024-01-07T05:43:56;9.98;;;4.10;;
83707;SDS011;73692;49.562;11.144;2024-01-07T05:46:22;7.85;;;3.47;;
83707;SDS011;73692;49.562;11.144;2024-01-07T05:48:48;8.77;;;3.70;;
83707;SDS011;73692;49.562;11.144;2024-01-07T05:51:14;7.75;;;3.92;;
83707;SDS011;73692;49.562;11.144;2024-01-07T05:53:40;8.55;;;4.45;;
83707;SDS011;73692;49.562;11.144;2024-01-07T05:56:05;8.90;;;3.80;;
83707;SDS011;73692;49.562;11.144;2024-01-07T05:58:31;8.80;;;4.43;;
83707;SDS011;73692;49.562;11.144;2024-01-07T06:00:56;10.40;;;3.95;;
83707;SDS011;73692;49.562;11.144;2024-01-07T06:03:22;10.45;;;4.15;;
83707;SDS011;73692;49.562;11.144;2024-01-07T06:05:47;10.02;;;4.60;;
83707;SDS011;73692;49.562;11.144;2024-01-07T06:08:12;10.30;;;4.85;;
83707;SDS011;73692;49.562;11.144;2024-01-07T06:10:38;11.23;;;4.72;;
83707;SDS011;73692;49.562;11.144;2024-01-07T06:13:04;11.15;;;5.38;;
83707;SDS011;73692;49.562;11.144;2024-01-07T06:15:29;11.98;;;5.75;;
83707;SDS011;73692;49.562;11.144;2024-01-07T06:17:55;11.88;;;5.28;;
83707;SDS011;73692;49.562;11.144;2024-01-07T06:20:20;9.75;;;4.68;;
83707;SDS011;73692;49.562;11.144;2024-01-07T06:22:46;9.77;;;5.07;;
83707;SDS011;73692;49.562;11.144;2024-01-07T06:25:11;10.63;;;5.13;;
83707;SDS011;73692;49.562;11.144;2024-01-07T06:27:38;11.90;;;5.50;;
83707;SDS011;73692;49.562;11.144;2024-01-07T06:30:04;11.77;;;5.15;;
83707;SDS011;73692;49.562;11.144;2024-01-07T06:32:32;10.77;;;4.78;;
83707;SDS011;73692;49.562;11.144;2024-01-07T06:34:57;9.98;;;5.45;;
83707;SDS011;73692;49.562;11.144;2024-01-07T06:37:25;10.23;;;5.32;;
83707;SDS011;73692;49.562;11.144;2024-01-07T06:39:54;10.63;;;5.57;;
83707;SDS011;73692;49.562;11.144;2024-01-07T06:42:19;13.20;;;6.18;;
83707;SDS011;73692;49.562;11.144;2024-01-07T06:44:44;10.65;;;4.65;;
83707;SDS011;73692;49.562;11.144;2024-01-07T06:47:10;11.40;;;5.10;;
83707;SDS011;73692;49.562;11.144;2024-01-07T06:49:35;12.85;;;5.72;;
83707;SDS011;73692;49.562;11.144;2024-01-07T06:52:00;12.45;;;5.85;;
83707;SDS011;73692;49.562;11.144;2024-01-07T06:54:26;14.23;;;5.95;;
83707;SDS011;73692;49.562;11.144;2024-01-07T06:56:51;12.90;;;6.38;;
83707;SDS011;73692;49.562;11.144;2024-01-07T06:59:17;11.40;;;5.72;;
83707;SDS011;73692;49.562;11.144;2024-01-07T07:01:42;13.90;;;5.68;;
83707;SDS011;73692;49.562;11.144;2024-01-07T07:04:07;11.48;;;6.03;;
83707;SDS011;73692;49.562;11.144;2024-01-07T07:06:33;11.32;;;5.80;;
83707;SDS011;73692;49.562;11.144;2024-01-07T07:08:59;11.90;;;5.93;;
83707;SDS011;73692;49.562;11.144;2024-01-07T07:11:24;11.60;;;5.50;;
83707;SDS011;73692;49.562;11.144;2024-01-07T07:13:50;13.65;;;6.47;;
83707;SDS011;73692;49.562;11.144;2024-01-07T07:16:15;11.27;;;5.72;;
83707;SDS011;73692;49.562;11.144;2024-01-07T07:18:40;13.57;;;6.70;;
83707;SDS011;73692;49.562;11.144;2024-01-07T07:21:05;11.77;;;6.05;;
83707;SDS011;73692;49.562;11.144;2024-01-07T07:23:31;14.00;;;6.85;;
83707;SDS011;73692;49.562;11.144;2024-01-07T07:25:56;12.98;;;6.72;;
83707;SDS011;73692;49.562;11.144;2024-01-07T07:28:22;12.30;;;6.65;;
83707;SDS011;73692;49.562;11.144;2024-01-07T07:30:47;13.63;;;6.80;;
83707;SDS011;73692;49.562;11.144;2024-01-07T07:33:12;12.52;;;6.70;;
83707;SDS011;73692;49.562;11.144;2024-01-07T07:35:38;11.38;;;5.53;;
83707;SDS011;73692;49.562;11.144;2024-01-07T07:38:05;11.55;;;6.80;;
83707;SDS011;73692;49.562;11.144;2024-01-07T07:40:31;13.90;;;6.85;;
83707;SDS011;73692;49.562;11.144;2024-01-07T07:42:57;13.40;;;7.03;;
83707;SDS011;73692;49.562;11.144;2024-01-07T07:45:22;12.15;;;7.05;;
83707;SDS011;73692;49.562;11.144;2024-01-07T07:47:47;11.10;;;5.78;;
83707;SDS011;73692;49.562;11.144;2024-01-07T07:50:13;13.32;;;6.60;;
83707;SDS011;73692;49.562;11.144;2024-01-07T07:52:38;13.30;;;7.25;;
83707;SDS011;73692;49.562;11.144;2024-01-07T07:55:04;13.38;;;6.57;;
83707;SDS011;73692;49.562;11.144;2024-01-07T07:57:31;14.38;;;6.32;;
83707;SDS011;73692;49.562;11.144;2024-01-07T07:59:57;14.50;;;7.28;;
83707;SDS011;73692;49.562;11.144;2024-01-07T08:02:22;13.40;;;6.80;;
83707;SDS011;73692;49.562;11.144;2024-01-07T08:04:48;11.57;;;6.43;;
83707;SDS011;73692;49.562;11.144;2024-01-07T08:07:13;13.27;;;6.13;;
83707;SDS011;73692;49.562;11.144;2024-01-07T08:09:38;11.45;;;6.38;;
83707;SDS011;73692;49.562;11.144;2024-01-07T08:12:04;10.68;;;5.43;;
83707;SDS011;73692;49.562;11.144;2024-01-07T08:14:31;12.27;;;5.78;;
83707;SDS011;73692;49.562;11.144;2024-01-07T08:16:56;12.98;;;7.28;;
83707;SDS011;73692;49.562;11.144;2024-01-07T08:19:22;14.25;;;7.40;;
83707;SDS011;73692;49.562;11.144;2024-01-07T08:21:47;13.15;;;6.55;;
83707;SDS011;73692;49.562;11.144;2024-01-07T08:24:12;13.98;;;6.95;;
83707;SDS011;73692;49.562;11.144;2024-01-07T08:26:38;12.35;;;6.63;;
83707;SDS011;73692;49.562;11.144;2024-01-07T08:29:03;13.88;;;6.45;;
83707;SDS011;73692;49.562;11.144;2024-01-07T08:31:28;12.63;;;6.70;;
83707;SDS011;73692;49.562;11.144;2024-01-07T08:33:54;12.23;;;6.00;;
83707;SDS011;73692;49.562;11.144;2024-01-07T08:36:19;13.00;;;6.10;;
83707;SDS011;73692;49.562;11.144;2024-01-07T08:38:44;10.90;;;6.40;;
83707;SDS011;73692;49.562;11.144;2024-01-07T08:41:10;14.18;;;6.82;;
83707;SDS011;73692;49.562;11.144;2024-01-07T08:43:35;17.23;;;7.50;;
83707;SDS011;73692;49.562;11.144;2024-01-07T08:46:02;13.73;;;6.88;;
83707;SDS011;73692;49.562;11.144;2024-01-07T08:48:29;13.93;;;6.97;;
83707;SDS011;73692;49.562;11.144;2024-01-07T08:50:54;15.52;;;7.70;;
83707;SDS011;73692;49.562;11.144;2024-01-07T08:53:20;12.82;;;7.30;;
83707;SDS011;73692;49.562;11.144;2024-01-07T08:55:47;16.48;;;7.20;;
83707;SDS011;73692;49.562;11.144;2024-01-07T08:58:12;12.88;;;6.70;;
83707;SDS011;73692;49.562;11.144;2024-01-07T09:00:39;18.02;;;8.10;;
83707;SDS011;73692;49.562;11.144;2024-01-07T09:03:04;17.63;;;8.63;;
83707;SDS011;73692;49.562;11.144;2024-01-07T09:05:31;15.02;;;7.38;;
83707;SDS011;73692;49.562;11.144;2024-01-07T09:07:57;17.02;;;8.00;;
83707;SDS011;73692;49.562;11.144;2024-01-07T09:10:22;13.40;;;7.57;;
83707;SDS011;73692;49.562;11.144;2024-01-07T09:12:47;10.68;;;5.78;;
83707;SDS011;73692;49.562;11.144;2024-01-07T09:15:14;14.30;;;7.10;;
83707;SDS011;73692;49.562;11.144;2024-01-07T09:17:43;14.10;;;6.68;;
83707;SDS011;73692;49.562;11.144;2024-01-07T09:20:10;11.47;;;6.73;;
83707;SDS011;73692;49.562;11.144;2024-01-07T09:22:35;15.13;;;7.75;;
83707;SDS011;73692;49.562;11.144;2024-01-07T09:25:02;14.32;;;7.47;;
83707;SDS011;73692;49.562;11.144;2024-01-07T09:27:28;13.75;;;6.85;;
83707;SDS011;73692;49.562;11.144;2024-01-07T09:29:54;13.68;;;6.75;;
83707;SDS011;73692;49.562;11.144;2024-01-07T09:32:19;15.18;;;7.15;;
83707;SDS011;73692;49.562;11.144;2024-01-07T09:34:44;15.88;;;7.40;;
83707;SDS011;73692;49.562;11.144;2024-01-07T09:37:10;15.50;;;7.75;;
83707;SDS011;73692;49.562;11.144;2024-01-07T09:39:38;14.95;;;6.90;;
83707;SDS011;73692;49.562;11.144;2024-01-07T09:42:05;15.73;;;7.88;;
83707;SDS011;73692;49.562;11.144;2024-01-07T09:44:41;14.38;;;7.45;;
83707;SDS011;73692;49.562;11.144;2024-01-07T09:47:10;14.27;;;7.65;;
83707;SDS011;73692;49.562;11.144;2024-01-07T09:49:37;12.38;;;7.18;;
83707;SDS011;73692;49.562;11.144;2024-01-07T09:54:28;14.98;;;7.45;;
83707;SDS011;73692;49.562;11.144;2024-01-07T09:57:03;12.38;;;6.38;;
83707;SDS011;73692;49.562;11.144;2024-01-07T09:59:31;12.93;;;7.03;;
83707;SDS011;73692;49.562;11.144;2024-01-07T10:01:57;16.95;;;7.47;;
83707;SDS011;73692;49.562;11.144;2024-01-07T10:04:23;14.10;;;7.15;;
83707;SDS011;73692;49.562;11.144;2024-01-07T10:09:15;13.73;;;7.22;;
83707;SDS011;73692;49.562;11.144;2024-01-07T10:11:40;14.38;;;6.65;;
83707;SDS011;73692;49.562;11.144;2024-01-07T10:14:06;15.02;;;7.03;;
83707;SDS011;73692;49.562;11.144;2024-01-07T10:16:31;12.82;;;6.13;;
83707;SDS011;73692;49.562;11.144;2024-01-07T10:18:58;12.20;;;6.90;;
83707;SDS011;73692;49.562;11.144;2024-01-07T10:21:23;16.27;;;7.28;;
83707;SDS011;73692;49.562;11.144;2024-01-07T10:23:48;15.87;;;7.23;;
83707;SDS011;73692;49.562;11.144;2024-01-07T10:26:14;14.15;;;7.78;;
83707;SDS011;73692;49.562;11.144;2024-01-07T10:28:39;14.18;;;6.90;;
83707;SDS011;73692;49.562;11.144;2024-01-07T10:33:31;13.60;;;6.63;;
83707;SDS011;73692;49.562;11.144;2024-01-07T10:36:01;18.10;;;8.25;;
83707;SDS011;73692;49.562;11.144;2024-01-07T10:38:29;16.40;;;7.05;;
83707;SDS011;73692;49.562;11.144;2024-01-07T10:40:54;16.25;;;7.90;;
83707;SDS011;73692;49.562;11.144;2024-01-07T10:45:47;14.10;;;7.73;;
83707;SDS011;73692;49.562;11.144;2024-01-07T10:48:13;12.98;;;6.80;;
83707;SDS011;73692;49.562;11.144;2024-01-07T10:50:42;11.85;;;6.32;;
83707;SDS011;73692;49.562;11.144;2024-01-07T10:53:10;13.77;;;7.97;;
83707;SDS011;73692;49.562;11.144;2024-01-07T10:55:39;12.57;;;7.05;;
83707;SDS011;73692;49.562;11.144;2024-01-07T10:58:07;14.48;;;6.63;;
83707;SDS011;73692;49.562;11.144;2024-01-07T11:00:32;17.85;;;7.38;;
83707;SDS011;73692;49.562;11.144;2024-01-07T11:03:17;16.45;;;7.07;;
83707;SDS011;73692;49.562;11.144;2024-01-07T11:06:01;14.75;;;6.30;;
83707;SDS011;73692;49.562;11.144;2024-01-07T11:08:43;15.40;;;7.10;;
83707;SDS011;73692;49.562;11.144;2024-01-07T11:11:16;14.13;;;8.18;;
83707;SDS011;73692;49.562;11.144;2024-01-07T11:13:43;13.60;;;6.57;;
83707;SDS011;73692;49.562;11.144;2024-01-07T11:16:09;13.35;;;6.28;;
83707;SDS011;73692;49.562;11.144;2024-01-07T11:18:45;11.98;;;6.65;;
83707;SDS011;73692;49.562;11.144;2024-01-07T11:21:12;11.05;;;5.70;;
83707;SDS011;73692;49.562;11.144;2024-01-07T11:23:45;10.73;;;5.85;;
83707;SDS011;73692;49.562;11.144;2024-01-07T11:26:11;10.30;;;6.20;;
83707;SDS011;73692;49.562;11.144;2024-01-07T11:28:50;13.52;;;7.22;;
83707;SDS011;73692;49.562;11.144;2024-01-07T11:31:20;14.07;;;6.80;;
83707;SDS011;73692;49.562;11.144;2024-01-07T11:33:47;11.63;;;6.13;;
83707;SDS011;73692;49.562;11.144;2024-01-07T11:36:14;11.25;;;6.20;;
83707;SDS011;73692;49.562;11.144;2024-01-07T11:38:41;10.13;;;5.78;;
83707;SDS011;73692;49.562;11.144;2024-01-07T11:41:07;10.32;;;5.85;;
83707;SDS011;73692;49.562;11.144;2024-01-07T11:43:34;12.68;;;6.88;;
83707;SDS011;73692;49.562;11.144;2024-01-07T11:46:00;13.32;;;6.05;;
83707;SDS011;73692;49.562;11.144;2024-01-07T11:48:25;10.40;;;6.03;;
83707;SDS011;73692;49.562;11.144;2024-01-07T11:50:50;12.93;;;5.85;;
83707;SDS011;73692;49.562;11.144;2024-01-07T11:53:16;13.18;;;6.55;;
83707;SDS011;73692;49.562;11.144;2024-01-07T11:55:41;14.20;;;6.38;;
83707;SDS011;73692;49.562;11.144;2024-01-07T11:58:07;11.77;;;6.20;;
83707;SDS011;73692;49.562;11.144;2024-01-07T12:00:32;9.63;;;5.32;;
83707;SDS011;73692;49.562;11.144;2024-01-07T12:03:02;9.80;;;5.28;;
83707;SDS011;73692;49.562;11.144;2024-01-07T12:05:27;12.40;;;5.35;;
83707;SDS011;73692;49.562;11.144;2024-01-07T12:07:53;12.63;;;5.63;;
83707;SDS011;73692;49.562;11.144;2024-01-07T12:10:19;10.32;;;5.22;;
83707;SDS011;73692;49.562;11.144;2024-01-07T12:12:44;10.07;;;5.25;;
83707;SDS011;73692;49.562;11.144;2024-01-07T12:15:09;14.40;;;6.60;;
83707;SDS011;73692;49.562;11.144;2024-01-07T12:17:38;11.07;;;5.72;;
83707;SDS011;73692;49.562;11.144;2024-01-07T12:20:04;10.55;;;5.43;;
83707;SDS011;73692;49.562;11.144;2024-01-07T12:22:30;8.77;;;4.90;;
83707;SDS011;73692;49.562;11.144;2024-01-07T12:25:02;10.18;;;5.38;;
83707;SDS011;73692;49.562;11.144;2024-01-07T12:27:28;12.38;;;5.65;;
83707;SDS011;73692;49.562;11.144;2024-01-07T12:29:54;14.48;;;5.15;;
83707;SDS011;73692;49.562;11.144;2024-01-07T12:32:21;10.30;;;5.00;;
83707;SDS011;73692;49.562;11.144;2024-01-07T12:34:47;11.20;;;5.45;;
83707;SDS011;73692;49.562;11.144;2024-01-07T12:37:13;11.68;;;5.68;;
83707;SDS011;73692;49.562;11.144;2024-01-07T12:39:38;14.05;;;5.00;;
83707;SDS011;73692;49.562;11.144;2024-01-07T12:42:04;7.93;;;4.63;;
83707;SDS011;73692;49.562;11.144;2024-01-07T12:44:29;11.30;;;4.75;;
83707;SDS011;73692;49.562;11.144;2024-01-07T12:46:55;12.63;;;6.13;;
83707;SDS011;73692;49.562;11.144;2024-01-07T12:49:20;10.48;;;5.65;;
83707;SDS011;73692;49.562;11.144;2024-01-07T12:51:47;10.25;;;5.35;;
83707;SDS011;73692;49.562;11.144;2024-01-07T12:54:12;9.38;;;5.43;;
83707;SDS011;73692;49.562;11.144;2024-01-07T12:56:38;9.48;;;5.10;;
83707;SDS011;73692;49.562;11.144;2024-01-07T12:59:03;10.90;;;5.60;;
83707;SDS011;73692;49.562;11.144;2024-01-07T13:01:28;8.32;;;4.65;;
83707;SDS011;73692;49.562;11.144;2024-01-07T13:03:54;9.25;;;4.45;;
83707;SDS011;73692;49.562;11.144;2024-01-07T13:06:19;9.35;;;5.03;;
83707;SDS011;73692;49.562;11.144;2024-01-07T13:08:44;11.32;;;4.70;;
83707;SDS011;73692;49.562;11.144;2024-01-07T13:11:10;11.02;;;4.90;;
83707;SDS011;73692;49.562;11.144;2024-01-07T13:13:39;7.75;;;4.03;;
83707;SDS011;73692;49.562;11.144;2024-01-07T13:16:04;7.25;;;4.38;;
83707;SDS011;73692;49.562;11.144;2024-01-07T13:18:29;11.85;;;5.78;;
83707;SDS011;73692;49.562;11.144;2024-01-07T13:20:55;9.75;;;4.55;;
83707;SDS011;73692;49.562;11.144;2024-01-07T13:23:20;7.15;;;4.65;;
83707;SDS011;73692;49.562;11.144;2024-01-07T13:25:46;10.10;;;4.78;;
83707;SDS011;73692;49.562;11.144;2024-01-07T13:28:11;10.98;;;5.05;;
83707;SDS011;73692;49.562;11.144;2024-01-07T13:30:37;9.55;;;4.55;;
83707;SDS011;73692;49.562;11.144;2024-01-07T13:33:03;8.30;;;4.30;;
83707;SDS011;73692;49.562;11.144;2024-01-07T13:35:28;7.43;;;4.47;;
83707;SDS011;73692;49.562;11.144;2024-01-07T13:37:53;8.45;;;4.28;;
83707;SDS011;73692;49.562;11.144;2024-01-07T13:40:19;7.43;;;4.45;;
83707;SDS011;73692;49.562;11.144;2024-01-07T13:42:44;9.35;;;4.35;;
83707;SDS011;73692;49.562;11.144;2024-01-07T13:45:10;7.00;;;4.30;;
83707;SDS011;73692;49.562;11.144;2024-01-07T13:47:36;7.20;;;3.90;;
83707;SDS011;73692;49.562;11.144;2024-01-07T13:50:01;6.97;;;4.10;;
83707;SDS011;73692;49.562;11.144;2024-01-07T13:52:28;6.75;;;3.75;;
83707;SDS011;73692;49.562;11.144;2024-01-07T13:54:54;8.00;;;4.10;;
83707;SDS011;73692;49.562;11.144;2024-01-07T13:57:20;6.88;;;3.60;;
83707;SDS011;73692;49.562;11.144;2024-01-07T13:59:45;8.45;;;4.28;;
83707;SDS011;73692;49.562;11.144;2024-01-07T14:02:11;5.97;;;3.25;;
83707;SDS011;73692;49.562;11.144;2024-01-07T14:04:36;7.97;;;3.92;;
83707;SDS011;73692;49.562;11.144;2024-01-07T14:07:01;6.72;;;3.30;;
83707;SDS011;73692;49.562;11.144;2024-01-07T14:09:27;6.93;;;3.45;;
83707;SDS011;73692;49.562;11.144;2024-01-07T14:11:56;5.38;;;3.60;;
83707;SDS011;73692;49.562;11.144;2024-01-07T14:14:22;8.95;;;4.00;;
83707;SDS011;73692;49.562;11.144;2024-01-07T14:16:48;7.10;;;3.90;;
83707;SDS011;73692;49.562;11.144;2024-01-07T14:19:13;6.82;;;3.92;;
83707;SDS011;73692;49.562;11.144;2024-01-07T14:21:41;7.60;;;4.15;;
83707;SDS011;73692;49.562;11.144;2024-01-07T14:24:06;6.80;;;3.70;;
83707;SDS011;73692;49.562;11.144;2024-01-07T14:26:32;5.53;;;3.20;;
83707;SDS011;73692;49.562;11.144;2024-01-07T14:28:57;10.23;;;4.18;;
83707;SDS011;73692;49.562;11.144;2024-01-07T14:31:22;8.63;;;4.07;;
83707;SDS011;73692;49.562;11.144;2024-01-07T14:33:48;7.03;;;3.75;;